sensor_id;sensor_type;location;lat;lon;timestamp;pressure;altitude;pressure_sealevel;temperature;humidity
46614;BME280;32338;50.430;6.806;2024-01-07T00:01:03;65370.16;;;-0.52;100.00
46614;BME280;32338;50.430;6.806;2024-01-07T00:03:31;65370.38;;;-0.50;100.00
46614;BME280;32338;50.430;6.806;2024-01-07T00:05:58;65361.44;;;-0.58;100.00
46614;BME280;32338;50.430;6.806;2024-01-07T00:08:24;65357.53;;;-0.61;100.00
46614;BME280;32338;50.430;6.806;2024-01-07T00:10:51;65361.09;;;-0.56;100.00
46614;BME280;32338;50.430;6.806;2024-01-07T00:13:17;65344.16;;;-0.74;100.00
46614;BME280;32338;50.430;6.806;2024-01-07T00:15:44;65342.69;;;-0.73;100.00
46614;BME280;32338;50.430;6.806;2024-01-07T00:18:10;65346.75;;;-0.74;100.00
46614;BME280;32338;50.430;6.806;2024-01-07T00:20:39;65341.38;;;-0.76;100.00
46614;BME280;32338;50.430;6.806;2024-01-07T00:23:05;65342.34;;;-0.71;100.00
46614;BME280;32338;50.430;6.806;2024-01-07T00:25:32;65357.53;;;-0.61;100.00
46614;BME280;32338;50.430;6.806;2024-01-07T00:27:59;65358.31;;;-0.58;100.00
46614;BME280;32338;50.430;6.806;2024-01-07T00:30:25;65361.44;;;-0.58;100.00
46614;BME280;32338;50.430;6.806;2024-01-07T00:32:52;65354.06;;;-0.60;100.00
46614;BME280;32338;50.430;6.806;2024-01-07T00:35:19;65362.00;;;-0.57;100.00
46614;BME280;32338;50.430;6.806;2024-01-07T00:37:46;65368.69;;;-0.51;100.00
46614;BME280;32338;50.430;6.806;2024-01-07T00:40:13;65357.06;;;-0.55;100.00
46614;BME280;32338;50.430;6.806;2024-01-07T00:42:40;65367.00;;;-0.53;100.00
46614;BME280;32338;50.430;6.806;2024-01-07T00:45:08;65361.31;;;-0.53;100.00
46614;BME280;32338;50.430;6.806;2024-01-07T00:47:35;65364.22;;;-0.55;100.00
46614;BME280;32338;50.430;6.806;2024-01-07T00:50:01;65361.66;;;-0.55;100.00
46614;BME280;32338;50.430;6.806;2024-01-07T00:52:28;65354.63;;;-0.59;100.00
46614;BME280;32338;50.430;6.806;2024-01-07T00:54:56;65363.88;;;-0.53;100.00
46614;BME280;32338;50.430;6.806;2024-01-07T00:57:23;65367.25;;;-0.50;100.00
46614;BME280;32338;50.430;6.806;2024-01-07T00:59:50;65361.66;;;-0.55;100.00
46614;BME280;32338;50.430;6.806;2024-01-07T01:02:16;65368.13;;;-0.52;100.00
46614;BME280;32338;50.430;6.806;2024-01-07T01:04:43;65373.16;;;-0.47;100.00
46614;BME280;32338;50.430;6.806;2024-01-07T01:07:09;65359.22;;;-0.60;100.00
46614;BME280;32338;50.430;6.806;2024-01-07T01:09:36;65361.88;;;-0.53;100.00
46614;BME280;32338;50.430;6.806;2024-01-07T01:12:06;65369.25;;;-0.51;100.00
46614;BME280;32338;50.430;6.806;2024-01-07T01:14:33;65362.44;;;-0.52;100.00
46614;BME280;32338;50.430;6.806;2024-01-07T01:16:59;65372.41;;;-0.50;100.00
46614;BME280;32338;50.430;6.806;2024-01-07T01:19:26;65373.28;;;-0.52;100.00
46614;BME280;32338;50.430;6.806;2024-01-07T01:21:53;65357.53;;;-0.61;100.00
46614;BME280;32338;50.430;6.806;2024-01-07T01:24:20;65361.44;;;-0.58;100.00
46614;BME280;32338;50.430;6.806;2024-01-07T01:26:46;65363.13;;;-0.56;100.00
46614;BME280;32338;50.430;6.806;2024-01-07T01:29:14;65372.41;;;-0.50;100.00
46614;BME280;32338;50.430;6.806;2024-01-07T01:31:41;65366.13;;;-0.51;100.00
46614;BME280;32338;50.430;6.806;2024-01-07T01:34:07;65363.88;;;-0.53;100.00
46614;BME280;32338;50.430;6.806;2024-01-07T01:36:34;65361.88;;;-0.53;100.00
46614;BME280;32338;50.430;6.806;2024-01-07T01:39:00;65363.88;;;-0.53;100.00
46614;BME280;32338;50.430;6.806;2024-01-07T01:41:27;65362.56;;;-0.57;100.00
46614;BME280;32338;50.430;6.806;2024-01-07T01:43:56;65366.69;;;-0.51;100.00
46614;BME280;32338;50.430;6.806;2024-01-07T01:46:24;65358.53;;;-0.56;100.00
46614;BME280;32338;50.430;6.806;2024-01-07T01:48:51;65351.63;;;-0.64;100.00
46614;BME280;32338;50.430;6.806;2024-01-07T01:51:19;65357.88;;;-0.63;100.00
46614;BME280;32338;50.430;6.806;2024-01-07T01:53:45;65364.22;;;-0.55;100.00
46614;BME280;32338;50.430;6.806;2024-01-07T01:56:13;65360.56;;;-0.56;100.00
46614;BME280;32338;50.430;6.806;2024-01-07T01:58:40;65361.66;;;-0.55;100.00
46614;BME280;32338;50.430;6.806;2024-01-07T02:01:07;65361.44;;;-0.58;100.00
46614;BME280;32338;50.430;6.806;2024-01-07T02:03:35;65358.66;;;-0.60;100.00
46614;BME280;32338;50.430;6.806;2024-01-07T02:06:02;65356.06;;;-0.60;100.00
46614;BME280;32338;50.430;6.806;2024-01-07T02:08:29;65363.56;;;-0.51;100.00
46614;BME280;32338;50.430;6.806;2024-01-07T02:10:56;65373.16;;;-0.47;100.00
46614;BME280;32338;50.430;6.806;2024-01-07T02:13:22;65371.50;;;-0.48;100.00
46614;BME280;32338;50.430;6.806;2024-01-07T02:15:49;65374.69;;;-0.41;100.00
46614;BME280;32338;50.430;6.806;2024-01-07T02:18:15;65380.81;;;-0.35;100.00
46614;BME280;32338;50.430;6.806;2024-01-07T02:20:43;65377.63;;;-0.43;100.00
46614;BME280;32338;50.430;6.806;2024-01-07T02:23:10;65366.13;;;-0.51;100.00
46614;BME280;32338;50.430;6.806;2024-01-07T02:25:38;65372.03;;;-0.48;100.00
46614;BME280;32338;50.430;6.806;2024-01-07T02:28:05;65373.28;;;-0.52;100.00
46614;BME280;32338;50.430;6.806;2024-01-07T02:30:32;65366.13;;;-0.51;100.00
46614;BME280;32338;50.430;6.806;2024-01-07T02:33:01;65368.91;;;-0.48;100.00
46614;BME280;32338;50.430;6.806;2024-01-07T02:35:27;65383.97;;;-0.35;100.00
46614;BME280;32338;50.430;6.806;2024-01-07T02:37:54;65371.69;;;-0.46;100.00
46614;BME280;32338;50.430;6.806;2024-01-07T02:40:20;65371.13;;;-0.46;100.00
46614;BME280;32338;50.430;6.806;2024-01-07T02:42:48;65368.00;;;-0.47;100.00
46614;BME280;32338;50.430;6.806;2024-01-07T02:45:15;65357.75;;;-0.59;100.00
46614;BME280;32338;50.430;6.806;2024-01-07T02:47:42;65363.69;;;-0.56;100.00
46614;BME280;32338;50.430;6.806;2024-01-07T02:50:09;65363.69;;;-0.56;100.00
46614;BME280;32338;50.430;6.806;2024-01-07T02:52:35;65356.84;;;-0.57;100.00
46614;BME280;32338;50.430;6.806;2024-01-07T02:55:02;65359.97;;;-0.57;100.00
46614;BME280;32338;50.430;6.806;2024-01-07T02:57:29;65363.13;;;-0.56;100.00
46614;BME280;32338;50.430;6.806;2024-01-07T02:59:57;65369.59;;;-0.53;100.00
46614;BME280;32338;50.430;6.806;2024-01-07T03:02:23;65364.09;;;-0.51;100.00
46614;BME280;32338;50.430;6.806;2024-01-07T03:04:50;65359.97;;;-0.57;100.00
46614;BME280;32338;50.430;6.806;2024-01-07T03:07:17;65362.34;;;-0.59;100.00
46614;BME280;32338;50.430;6.806;2024-01-07T03:09:43;65359.97;;;-0.57;100.00
46614;BME280;32338;50.430;6.806;2024-01-07T03:12:10;65348.50;;;-0.65;100.00
46614;BME280;32338;50.430;6.806;2024-01-07T03:14:36;65362.00;;;-0.57;100.00
46614;BME280;32338;50.430;6.806;2024-01-07T03:17:04;65355.53;;;-0.61;100.00
46614;BME280;32338;50.430;6.806;2024-01-07T03:19:31;65355.88;;;-0.63;100.00
46614;BME280;32338;50.430;6.806;2024-01-07T03:21:58;65355.31;;;-0.63;100.00
46614;BME280;32338;50.430;6.806;2024-01-07T03:24:24;65355.88;;;-0.63;100.00
46614;BME280;32338;50.430;6.806;2024-01-07T03:26:51;65355.88;;;-0.63;100.00
46614;BME280;32338;50.430;6.806;2024-01-07T03:29:17;65353.66;;;-0.65;100.00
46614;BME280;32338;50.430;6.806;2024-01-07T03:31:44;65350.06;;;-0.71;100.00
46614;BME280;32338;50.430;6.806;2024-01-07T03:34:12;65349.16;;;-0.69;100.00
46614;BME280;32338;50.430;6.806;2024-01-07T03:36:39;65362.00;;;-0.57;100.00
46614;BME280;32338;50.430;6.806;2024-01-07T03:39:05;65357.53;;;-0.61;100.00
46614;BME280;32338;50.430;6.806;2024-01-07T03:41:32;65359.44;;;-0.57;100.00
46614;BME280;32338;50.430;6.806;2024-01-07T03:43:59;65359.22;;;-0.60;100.00
46614;BME280;32338;50.430;6.806;2024-01-07T03:46:25;65372.94;;;-0.50;100.00
46614;BME280;32338;50.430;6.806;2024-01-07T03:48:52;65359.78;;;-0.59;100.00
46614;BME280;32338;50.430;6.806;2024-01-07T03:51:20;65355.88;;;-0.63;100.00
46614;BME280;32338;50.430;6.806;2024-01-07T03:53:46;65346.38;;;-0.72;100.00
46614;BME280;32338;50.430;6.806;2024-01-07T03:56:13;65355.88;;;-0.63;100.00
46614;BME280;32338;50.430;6.806;2024-01-07T03:58:39;65365.34;;;-0.54;100.00
46614;BME280;32338;50.430;6.806;2024-01-07T04:01:06;65361.09;;;-0.56;100.00
46614;BME280;32338;50.430;6.806;2024-01-07T04:03:32;65358.88;;;-0.58;100.00
46614;BME280;32338;50.430;6.806;2024-01-07T04:05:59;65362.00;;;-0.57;100.00
46614;BME280;32338;50.430;6.806;2024-01-07T04:08:27;65363.13;;;-0.56;100.00
46614;BME280;32338;50.430;6.806;2024-01-07T04:10:54;65348.28;;;-0.68;100.00
46614;BME280;32338;50.430;6.806;2024-01-07T04:13:21;65348.84;;;-0.67;100.00
46614;BME280;32338;50.430;6.806;2024-01-07T04:15:47;65354.75;;;-0.64;100.00
46614;BME280;32338;50.430;6.806;2024-01-07T04:18:14;65349.03;;;-0.64;100.00
46614;BME280;32338;50.430;6.806;2024-01-07T04:20:40;65355.31;;;-0.63;100.00
46614;BME280;32338;50.430;6.806;2024-01-07T04:23:07;65370.50;;;-0.54;100.00
46614;BME280;32338;50.430;6.806;2024-01-07T04:25:35;65360.88;;;-0.58;100.00
46614;BME280;32338;50.430;6.806;2024-01-07T04:28:01;65356.28;;;-0.58;100.00
46614;BME280;32338;50.430;6.806;2024-01-07T04:30:28;65354.75;;;-0.64;100.00
46614;BME280;32338;50.430;6.806;2024-01-07T04:32:55;65355.31;;;-0.63;100.00
46614;BME280;32338;50.430;6.806;2024-01-07T04:35:21;65359.44;;;-0.57;100.00
46614;BME280;32338;50.430;6.806;2024-01-07T04:37:48;65364.00;;;-0.58;100.00
46614;BME280;32338;50.430;6.806;2024-01-07T04:40:14;65355.53;;;-0.61;100.00
46614;BME280;32338;50.430;6.806;2024-01-07T04:42:42;65344.22;;;-0.67;100.00
46614;BME280;32338;50.430;6.806;2024-01-07T04:45:09;65356.28;;;-0.58;100.00
46614;BME280;32338;50.430;6.806;2024-01-07T04:47:35;65359.44;;;-0.57;100.00
46614;BME280;32338;50.430;6.806;2024-01-07T04:50:03;65356.97;;;-0.62;100.00
46614;BME280;32338;50.430;6.806;2024-01-07T04:52:29;65365.34;;;-0.54;100.00
46614;BME280;32338;50.430;6.806;2024-01-07T04:54:56;65365.69;;;-0.56;100.00
46614;BME280;32338;50.430;6.806;2024-01-07T04:57:22;65372.94;;;-0.50;100.00
46614;BME280;32338;50.430;6.806;2024-01-07T04:59:51;65360.09;;;-0.61;100.00
46614;BME280;32338;50.430;6.806;2024-01-07T05:02:17;65360.69;;;-0.61;100.00
46614;BME280;32338;50.430;6.806;2024-01-07T05:04:44;65367.59;;;-0.52;100.00
46614;BME280;32338;50.430;6.806;2024-01-07T05:07:10;65367.91;;;-0.54;100.00
46614;BME280;32338;50.430;6.806;2024-01-07T05:09:37;65362.22;;;-0.55;100.00
46614;BME280;32338;50.430;6.806;2024-01-07T05:12:04;65367.25;;;-0.50;100.00
46614;BME280;32338;50.430;6.806;2024-01-07T05:14:31;65366.47;;;-0.53;100.00
46614;BME280;32338;50.430;6.806;2024-01-07T05:16:59;65377.06;;;-0.43;100.00
46614;BME280;32338;50.430;6.806;2024-01-07T05:19:26;65370.78;;;-0.44;100.00
46614;BME280;32338;50.430;6.806;2024-01-07T05:21:53;65368.56;;;-0.46;100.00
46614;BME280;32338;50.430;6.806;2024-01-07T05:24:19;65368.34;;;-0.49;100.00
46614;BME280;32338;50.430;6.806;2024-01-07T05:26:46;65369.81;;;-0.50;100.00
46614;BME280;32338;50.430;6.806;2024-01-07T05:29:12;65364.44;;;-0.53;100.00
46614;BME280;32338;50.430;6.806;2024-01-07T05:31:39;65361.66;;;-0.55;100.00
46614;BME280;32338;50.430;6.806;2024-01-07T05:34:07;65357.19;;;-0.59;100.00
46614;BME280;32338;50.430;6.806;2024-01-07T05:36:34;65364.22;;;-0.55;100.00
46614;BME280;32338;50.430;6.806;2024-01-07T05:39:00;65352.38;;;-0.61;100.00
46614;BME280;32338;50.430;6.806;2024-01-07T05:41:27;65362.00;;;-0.57;100.00
46614;BME280;32338;50.430;6.806;2024-01-07T05:43:54;65362.00;;;-0.57;100.00
46614;BME280;32338;50.430;6.806;2024-01-07T05:46:20;65369.25;;;-0.51;100.00
46614;BME280;32338;50.430;6.806;2024-01-07T05:48:48;65369.03;;;-0.53;100.00
46614;BME280;32338;50.430;6.806;2024-01-07T05:51:16;65371.50;;;-0.48;100.00
46614;BME280;32338;50.430;6.806;2024-01-07T05:53:44;65368.00;;;-0.47;100.00
46614;BME280;32338;50.430;6.806;2024-01-07T05:56:10;65361.31;;;-0.53;100.00
46614;BME280;32338;50.430;6.806;2024-01-07T05:58:37;65363.34;;;-0.54;100.00
46614;BME280;32338;50.430;6.806;2024-01-07T06:01:04;65359.06;;;-0.55;100.00
46614;BME280;32338;50.430;6.806;2024-01-07T06:03:32;65353.84;;;-0.62;100.00
46614;BME280;32338;50.430;6.806;2024-01-07T06:05:59;65362.91;;;-0.59;100.00
46614;BME280;32338;50.430;6.806;2024-01-07T06:08:27;65358.09;;;-0.61;100.00
46614;BME280;32338;50.430;6.806;2024-01-07T06:10:53;65357.88;;;-0.63;100.00
46614;BME280;32338;50.430;6.806;2024-01-07T06:13:20;65363.69;;;-0.56;100.00
46614;BME280;32338;50.430;6.806;2024-01-07T06:15:46;65350.16;;;-0.63;100.00
46614;BME280;32338;50.430;6.806;2024-01-07T06:18:13;65337.91;;;-0.75;100.00
46614;BME280;32338;50.430;6.806;2024-01-07T06:20:40;65356.22;;;-0.65;100.00
46614;BME280;32338;50.430;6.806;2024-01-07T06:23:06;65353.84;;;-0.62;100.00
46614;BME280;32338;50.430;6.806;2024-01-07T06:25:35;65348.63;;;-0.70;100.00
46614;BME280;32338;50.430;6.806;2024-01-07T06:28:01;65344.38;;;-0.71;100.00
46614;BME280;32338;50.430;6.806;2024-01-07T06:30:28;65351.63;;;-0.64;100.00
46614;BME280;32338;50.430;6.806;2024-01-07T06:32:55;65361.09;;;-0.56;100.00
46614;BME280;32338;50.430;6.806;2024-01-07T06:35:21;65354.41;;;-0.62;100.00
46614;BME280;32338;50.430;6.806;2024-01-07T06:37:48;65353.06;;;-0.66;100.00
46614;BME280;32338;50.430;6.806;2024-01-07T06:40:15;65364.22;;;-0.55;100.00
46614;BME280;32338;50.430;6.806;2024-01-07T06:42:43;65360.88;;;-0.58;100.00
46614;BME280;32338;50.430;6.806;2024-01-07T06:45:10;65362.56;;;-0.57;100.00
46614;BME280;32338;50.430;6.806;2024-01-07T06:47:36;65356.44;;;-0.62;100.00
46614;BME280;32338;50.430;6.806;2024-01-07T06:50:03;65356.66;;;-0.60;100.00
46614;BME280;32338;50.430;6.806;2024-01-07T06:52:30;65358.66;;;-0.60;100.00
46614;BME280;32338;50.430;6.806;2024-01-07T06:54:57;65358.88;;;-0.58;100.00
46614;BME280;32338;50.430;6.806;2024-01-07T06:57:24;65362.56;;;-0.57;100.00
46614;BME280;32338;50.430;6.806;2024-01-07T06:59:52;65362.56;;;-0.57;100.00
46614;BME280;32338;50.430;6.806;2024-01-07T07:02:20;65358.66;;;-0.60;100.00
46614;BME280;32338;50.430;6.806;2024-01-07T07:04:46;65367.59;;;-0.52;100.00
46614;BME280;32338;50.430;6.806;2024-01-07T07:07:13;65365.34;;;-0.54;100.00
46614;BME280;32338;50.430;6.806;2024-01-07T07:09:40;65359.66;;;-0.55;100.00
46614;BME280;32338;50.430;6.806;2024-01-07T07:12:06;65365.56;;;-0.52;100.00
46614;BME280;32338;50.430;6.806;2024-01-07T07:14:33;65362.22;;;-0.55;100.00
46614;BME280;32338;50.430;6.806;2024-01-07T07:17:01;65364.78;;;-0.55;100.00
46614;BME280;32338;50.430;6.806;2024-01-07T07:19:28;65359.44;;;-0.57;100.00
46614;BME280;32338;50.430;6.806;2024-01-07T07:21:55;65345.13;;;-0.68;100.00
46614;BME280;32338;50.430;6.806;2024-01-07T07:24:21;65360.56;;;-0.56;100.00
46614;BME280;32338;50.430;6.806;2024-01-07T07:26:48;65360.69;;;-0.61;100.00
46614;BME280;32338;50.430;6.806;2024-01-07T07:29:15;65355.31;;;-0.63;100.00
46614;BME280;32338;50.430;6.806;2024-01-07T07:31:41;65359.78;;;-0.59;100.00
46614;BME280;32338;50.430;6.806;2024-01-07T07:34:10;65352.53;;;-0.66;100.00
46614;BME280;32338;50.430;6.806;2024-01-07T07:36:37;65350.84;;;-0.68;100.00
46614;BME280;32338;50.430;6.806;2024-01-07T07:39:05;65346.25;;;-0.67;100.00
46614;BME280;32338;50.430;6.806;2024-01-07T07:41:31;65342.69;;;-0.73;100.00
46614;BME280;32338;50.430;6.806;2024-01-07T07:43:58;65347.50;;;-0.71;100.00
46614;BME280;32338;50.430;6.806;2024-01-07T07:46:24;65356.28;;;-0.58;100.00
46614;BME280;32338;50.430;6.806;2024-01-07T07:48:51;65350.72;;;-0.63;100.00
46614;BME280;32338;50.430;6.806;2024-01-07T07:51:19;65360.56;;;-0.56;100.00
46614;BME280;32338;50.430;6.806;2024-01-07T07:53:45;65354.63;;;-0.59;100.00
46614;BME280;32338;50.430;6.806;2024-01-07T07:56:12;65356.97;;;-0.62;100.00
46614;BME280;32338;50.430;6.806;2024-01-07T07:58:39;65352.16;;;-0.64;100.00
46614;BME280;32338;50.430;6.806;2024-01-07T08:01:05;65363.56;;;-0.51;100.00
46614;BME280;32338;50.430;6.806;2024-01-07T08:03:32;65358.88;;;-0.58;100.00
46614;BME280;32338;50.430;6.806;2024-01-07T08:06:00;65371.59;;;-0.53;100.00
46614;BME280;32338;50.430;6.806;2024-01-07T08:08:28;65356.66;;;-0.60;100.00
46614;BME280;32338;50.430;6.806;2024-01-07T08:10:54;65356.84;;;-0.57;100.00
46614;BME280;32338;50.430;6.806;2024-01-07T08:13:21;65368.69;;;-0.51;100.00
46614;BME280;32338;50.430;6.806;2024-01-07T08:15:47;65358.88;;;-0.58;100.00
46614;BME280;32338;50.430;6.806;2024-01-07T08:18:14;65352.94;;;-0.61;100.00
46614;BME280;32338;50.430;6.806;2024-01-07T08:20:40;65362.34;;;-0.59;100.00
46614;BME280;32338;50.430;6.806;2024-01-07T08:23:07;65348.50;;;-0.65;100.00
46614;BME280;32338;50.430;6.806;2024-01-07T08:25:35;65356.75;;;-0.64;100.00
46614;BME280;32338;50.430;6.806;2024-01-07T08:28:01;65338.56;;;-0.79;100.00
46614;BME280;32338;50.430;6.806;2024-01-07T08:30:28;65343.81;;;-0.72;100.00
46614;BME280;32338;50.430;6.806;2024-01-07T08:32:55;65345.25;;;-0.73;100.00
46614;BME280;32338;50.430;6.806;2024-01-07T08:35:21;65335.22;;;-0.82;100.00
46614;BME280;32338;50.430;6.806;2024-01-07T08:37:48;65328.41;;;-0.84;100.00
46614;BME280;32338;50.430;6.806;2024-01-07T08:40:15;65329.09;;;-0.88;100.00
46614;BME280;32338;50.430;6.806;2024-01-07T08:42:45;65338.56;;;-0.79;100.00
46614;BME280;32338;50.430;6.806;2024-01-07T08:45:12;65338.22;;;-0.77;100.00
46614;BME280;32338;50.430;6.806;2024-01-07T08:47:39;65323.19;;;-0.91;100.00
46614;BME280;32338;50.430;6.806;2024-01-07T08:50:06;65325.75;;;-0.91;100.00
46614;BME280;32338;50.430;6.806;2024-01-07T08:52:33;65325.63;;;-0.86;100.00
46614;BME280;32338;50.430;6.806;2024-01-07T08:55:00;65331.75;;;-0.80;100.00
46614;BME280;32338;50.430;6.806;2024-01-07T08:57:27;65328.97;;;-0.83;100.00
46614;BME280;32338;50.430;6.806;2024-01-07T08:59:55;65334.91;;;-0.80;100.00
46614;BME280;32338;50.430;6.806;2024-01-07T09:02:22;65325.06;;;-0.87;100.00
46614;BME280;32338;50.430;6.806;2024-01-07T09:04:48;65339.13;;;-0.78;100.00
46614;BME280;32338;50.430;6.806;2024-01-07T09:07:15;65331.00;;;-0.84;100.00
46614;BME280;32338;50.430;6.806;2024-01-07T09:09:42;65341.94;;;-0.76;100.00
46614;BME280;32338;50.430;6.806;2024-01-07T09:12:08;65345.84;;;-0.72;100.00
46614;BME280;32338;50.430;6.806;2024-01-07T09:14:37;65340.47;;;-0.75;100.00
46614;BME280;32338;50.430;6.806;2024-01-07T09:17:05;65323.72;;;-0.90;100.00
46614;BME280;32338;50.430;6.806;2024-01-07T09:19:31;65328.31;;;-0.91;100.00
46614;BME280;32338;50.430;6.806;2024-01-07T09:21:58;65337.47;;;-0.80;100.00
46614;BME280;32338;50.430;6.806;2024-01-07T09:24:24;65328.53;;;-0.88;100.00
46614;BME280;32338;50.430;6.806;2024-01-07T09:26:51;65313.91;;;-0.97;100.00
46614;BME280;32338;50.430;6.806;2024-01-07T09:29:17;65328.13;;;-0.93;100.00
46614;BME280;32338;50.430;6.806;2024-01-07T09:31:44;65320.06;;;-0.91;100.00
46614;BME280;32338;50.430;6.806;2024-01-07T09:34:12;65336.34;;;-0.81;100.00
46614;BME280;32338;50.430;6.806;2024-01-07T09:36:39;65336.69;;;-0.83;100.00
46614;BME280;32338;50.430;6.806;2024-01-07T09:39:05;65339.13;;;-0.78;100.00
46614;BME280;32338;50.430;6.806;2024-01-07T09:41:32;65332.31;;;-0.80;100.00
46614;BME280;32338;50.430;6.806;2024-01-07T09:43:59;65329.31;;;-0.85;100.00
46614;BME280;32338;50.430;6.806;2024-01-07T09:46:26;65327.09;;;-0.87;100.00
46614;BME280;32338;50.430;6.806;2024-01-07T09:48:55;65339.69;;;-0.78;100.00
46614;BME280;32338;50.430;6.806;2024-01-07T09:51:23;65336.00;;;-0.79;100.00
46614;BME280;32338;50.430;6.806;2024-01-07T09:53:55;65342.91;;;-0.70;100.00
46614;BME280;32338;50.430;6.806;2024-01-07T09:56:25;65356.44;;;-0.62;100.00
46614;BME280;32338;50.430;6.806;2024-01-07T09:58:52;65351.19;;;-0.70;100.00
46614;BME280;32338;50.430;6.806;2024-01-07T10:01:18;65350.50;;;-0.66;100.00
46614;BME280;32338;50.430;6.806;2024-01-07T10:03:46;65354.19;;;-0.64;100.00
46614;BME280;32338;50.430;6.806;2024-01-07T10:06:13;65357.53;;;-0.61;100.00
46614;BME280;32338;50.430;6.806;2024-01-07T10:08:41;65361.66;;;-0.55;100.00
46614;BME280;32338;50.430;6.806;2024-01-07T10:11:07;65359.22;;;-0.60;100.00
46614;BME280;32338;50.430;6.806;2024-01-07T10:13:34;65370.91;;;-0.49;100.00
46614;BME280;32338;50.430;6.806;2024-01-07T10:16:01;65380.75;;;-0.42;100.00
46614;BME280;32338;50.430;6.806;2024-01-07T10:18:28;65376.50;;;-0.44;100.00
46614;BME280;32338;50.430;6.806;2024-01-07T10:21:01;65365.44;;;-0.47;100.00
46614;BME280;32338;50.430;6.806;2024-01-07T10:23:29;65370.25;;;-0.45;100.00
46614;BME280;32338;50.430;6.806;2024-01-07T10:25:57;65377.63;;;-0.43;100.00
46614;BME280;32338;50.430;6.806;2024-01-07T10:28:24;65371.91;;;-0.43;100.00
46614;BME280;32338;50.430;6.806;2024-01-07T10:30:50;65370.59;;;-0.47;100.00
46614;BME280;32338;50.430;6.806;2024-01-07T10:33:17;65380.41;;;-0.40;100.00
46614;BME280;32338;50.430;6.806;2024-01-07T10:35:50;65359.97;;;-0.57;100.00
46614;BME280;32338;50.430;6.806;2024-01-07T10:38:18;65366.69;;;-0.51;100.00
46614;BME280;32338;50.430;6.806;2024-01-07T10:40:45;65366.34;;;-0.48;100.00
46614;BME280;32338;50.430;6.806;2024-01-07T10:43:15;65360.09;;;-0.61;100.00
46614;BME280;32338;50.430;6.806;2024-01-07T10:45:47;65347.84;;;-0.73;100.00
46614;BME280;32338;50.430;6.806;2024-01-07T10:48:17;65340.25;;;-0.77;100.00
46614;BME280;32338;50.430;6.806;2024-01-07T10:50:45;65357.31;;;-0.64;100.00
46614;BME280;32338;50.430;6.806;2024-01-07T10:53:17;65346.94;;;-0.71;100.00
46614;BME280;32338;50.430;6.806;2024-01-07T10:55:52;65368.50;;;-0.54;100.00
46614;BME280;32338;50.430;6.806;2024-01-07T10:58:22;65375.72;;;-0.47;100.00
46614;BME280;32338;50.430;6.806;2024-01-07T11:00:49;65380.06;;;-0.38;100.00
46614;BME280;32338;50.430;6.806;2024-01-07T11:03:21;65368.13;;;-0.52;100.00
46614;BME280;32338;50.430;6.806;2024-01-07T11:05:55;65379.31;;;-0.41;100.00
46614;BME280;32338;50.430;6.806;2024-01-07T11:08:26;65395.13;;;-0.24;100.00
46614;BME280;32338;50.430;6.806;2024-01-07T11:10:59;65396.78;;;-0.23;100.00
46614;BME280;32338;50.430;6.806;2024-01-07T11:13:36;65395.69;;;-0.24;100.00
46614;BME280;32338;50.430;6.806;2024-01-07T11:16:04;65389.88;;;-0.31;100.00
46614;BME280;32338;50.430;6.806;2024-01-07T11:18:31;65395.13;;;-0.24;100.00
46614;BME280;32338;50.430;6.806;2024-01-07T11:21:00;65399.03;;;-0.21;100.00
46614;BME280;32338;50.430;6.806;2024-01-07T11:23:29;65403.84;;;-0.19;100.00
46614;BME280;32338;50.430;6.806;2024-01-07T11:25:57;65404.28;;;-0.13;100.00
46614;BME280;32338;50.430;6.806;2024-01-07T11:28:47;65403.41;;;-0.24;100.00
46614;BME280;32338;50.430;6.806;2024-01-07T11:31:17;65400.69;;;-0.19;100.00
46614;BME280;32338;50.430;6.806;2024-01-07T11:33:45;65397.38;;;-0.22;100.00
46614;BME280;32338;50.430;6.806;2024-01-07T11:36:14;65403.50;;;-0.17;100.00
46614;BME280;32338;50.430;6.806;2024-01-07T11:38:42;65394.38;;;-0.27;100.00
46614;BME280;32338;50.430;6.806;2024-01-07T11:41:10;65385.84;;;-0.30;100.00
46614;BME280;32338;50.430;6.806;2024-01-07T11:43:37;65385.97;;;-0.35;100.00
46614;BME280;32338;50.430;6.806;2024-01-07T11:46:06;65383.41;;;-0.35;100.00
46614;BME280;32338;50.430;6.806;2024-01-07T11:48:32;65380.41;;;-0.40;100.00
46614;BME280;32338;50.430;6.806;2024-01-07T11:50:59;65367.59;;;-0.52;100.00
46614;BME280;32338;50.430;6.806;2024-01-07T11:53:25;65367.91;;;-0.54;100.00
46614;BME280;32338;50.430;6.806;2024-01-07T11:55:52;65358.66;;;-0.60;100.00
46614;BME280;32338;50.430;6.806;2024-01-07T11:58:19;65369.94;;;-0.55;100.00
46614;BME280;32338;50.430;6.806;2024-01-07T12:00:45;65366.34;;;-0.48;100.00
46614;BME280;32338;50.430;6.806;2024-01-07T12:03:13;65373.72;;;-0.46;100.00
46614;BME280;32338;50.430;6.806;2024-01-07T12:05:40;65369.47;;;-0.48;100.00
46614;BME280;32338;50.430;6.806;2024-01-07T12:08:07;65377.81;;;-0.40;100.00
46614;BME280;32338;50.430;6.806;2024-01-07T12:10:33;65368.69;;;-0.51;100.00
46614;BME280;32338;50.430;6.806;2024-01-07T12:13:00;65355.66;;;-0.66;100.00
46614;BME280;32338;50.430;6.806;2024-01-07T12:15:28;65357.53;;;-0.61;100.00
46614;BME280;32338;50.430;6.806;2024-01-07T12:17:56;65349.59;;;-0.64;100.00
46614;BME280;32338;50.430;6.806;2024-01-07T12:20:25;65359.00;;;-0.62;100.00
46614;BME280;32338;50.430;6.806;2024-01-07T12:22:52;65351.97;;;-0.67;100.00
46614;BME280;32338;50.430;6.806;2024-01-07T12:25:22;65349.16;;;-0.69;100.00
46614;BME280;32338;50.430;6.806;2024-01-07T12:27:49;65360.88;;;-0.58;100.00
46614;BME280;32338;50.430;6.806;2024-01-07T12:30:18;65359.78;;;-0.59;100.00
46614;BME280;32338;50.430;6.806;2024-01-07T12:32:45;65357.75;;;-0.59;100.00
46614;BME280;32338;50.430;6.806;2024-01-07T12:35:12;65362.78;;;-0.54;100.00
46614;BME280;32338;50.430;6.806;2024-01-07T12:37:40;65372.81;;;-0.45;100.00
46614;BME280;32338;50.430;6.806;2024-01-07T12:40:07;65330.78;;;-0.86;100.00
46614;BME280;32338;50.430;6.806;2024-01-07T12:42:36;65337.91;;;-0.75;100.00
46614;BME280;32338;50.430;6.806;2024-01-07T12:45:05;65348.84;;;-0.67;100.00
46614;BME280;32338;50.430;6.806;2024-01-07T12:47:32;65351.19;;;-0.70;100.00
46614;BME280;32338;50.430;6.806;2024-01-07T12:49:59;65353.06;;;-0.66;100.00